Higginsville, New York
Current Conditions -  °F | °C
As of 9:53 PM on Monday 26 Jan 2015 (Local Time) from KRME Reporting Station
Overcast Overcast  
Wind Chill: 15°   Ceiling: 8500
Heat Index: 15°   Visibility: 10mi
Dew Point:   Wind: 0mph
Humidity: 68%   Direction: NA
Pressure: 29.96"   Gusts: NA
Location:  43.1683°N, 75.6691°W
Report Text: KRME 270253Z AUTO 00000KT 10SM OVC085 M09/M14 A2996 RMK AO2 SLP155 T10941144 58008
Loading
Personal Weather Stations






























Interactive Weather Map New forecast layout! Learn more

10-Day Weather Forecast

Advertisements
Track Severe Weather on mobile